Karina — WDE7823 — position and weather

sailwx.info

Track history (hours):
 
Tides and Currents Weather Stations Pressure Air Temp Water Temp Dewpoint Dewpoint Depression Visibility Wind Speed Wind Dir Waves Ship Positions

Karina

Owner: Karina, LLC, Cape May Court House, NJ. More information available from US FCC via Universal Licensing System and Coast Guard Vessel Documentation Center.

Last reported at 2015-Sep-03 06:21 UTC. Time now 2015-Sep-04 14:37 UTC.
Position N 40°57' W 071°39'.

Length 21 m.

Type: Ship. MMSI: 367398120.

Date/timePositionNaut miles runAvg speedWind from/ knotsBaromVisibWave heightAir tempDewpointWater temp
2015-Sep-03 06:21N 40°57' W 071°39'5 0.7
2015-Sep-02 23:30N 41°01' W 071°34'195 5.4
2015-Sep-01 11:31N 38°58' W 074°53'0 0.0
2015-Sep-01 10:31N 38°58' W 074°53'0 0.0
2015-Aug-31 04:25N 38°58' W 074°53'  
2015-Aug-25 03:29N 38°46' W 073°36'61 4.1
2015-Aug-24 12:25N 38°58' W 074°53'0 0.0
2015-Aug-24 11:04N 38°58' W 074°53'0 0.0
2015-Aug-24 10:28N 38°58' W 074°53'0 0.0
2015-Aug-24 09:16N 38°58' W 074°53'0 0.0
2015-Aug-24 07:19N 38°58' W 074°53'  
Track history (hours):
 
Tides and Currents Weather Stations Pressure Air Temp Water Temp Dewpoint Dewpoint Depression Visibility Wind Speed Wind Dir Waves Ship Positions

Karina

Owner: Karina, LLC, Cape May Court House, NJ. More information available from US FCC via Universal Licensing System and Coast Guard Vessel Documentation Center.

Last reported at 2015-Sep-03 06:21 UTC. Time now 2015-Sep-04 14:37 UTC.
Position N 40°57' W 071°39'.

Length 21 m.

Type: Ship. MMSI: 367398120.

Date/timePositionNaut miles runAvg speedWind from/ knotsBaromVisibWave heightAir tempDewpointWater temp
2015-Sep-03 06:21N 40°57' W 071°39'5 0.7
2015-Sep-02 23:30N 41°01' W 071°34'195 5.4
2015-Sep-01 11:31N 38°58' W 074°53'0 0.0
2015-Sep-01 10:31N 38°58' W 074°53'0 0.0
2015-Aug-31 04:25N 38°58' W 074°53'  
2015-Aug-25 03:29N 38°46' W 073°36'61 4.1
2015-Aug-24 12:25N 38°58' W 074°53'0 0.0
2015-Aug-24 11:04N 38°58' W 074°53'0 0.0
2015-Aug-24 10:28N 38°58' W 074°53'0 0.0
2015-Aug-24 09:16N 38°58' W 074°53'0 0.0
2015-Aug-24 07:19N 38°58' W 074°53'  

Dump ship's entire track history